Time;durP1;ratioP1;P1;durP2;ratioP2;P2;SDS_P1;SDS_P2;PMS_P1;PMS_P2;Temp;Humidity;BMP_temperature;BMP_pressure;BME280_temperature;BME280_humidity;BME280_pressure;Samples;Min_cycle;Max_cycle;Signal;HPM_P1;HPM_P2
2021/09/29 00:01:10;;;;;;;;;1.00;1.00;;;;;20.96;48.34;101413.66;5060531;28;45207;-47
2021/09/29 00:03:36;;;;;;;;;0.33;0.33;;;;;20.96;48.28;101414.56;5059713;28;47130;-45
2021/09/29 00:06:03;;;;;;;;;1.00;1.00;;;;;20.96;48.22;101401.19;5059739;28;45266;-49
2021/09/29 00:08:28;;;;;;;;;2.00;0.00;;;;;20.97;48.51;101402.06;5060017;28;45338;-45
2021/09/29 00:10:53;;;;;;;;;1.00;1.00;;;;;20.95;48.28;101394.06;5060081;28;45449;-49
2021/09/29 00:13:23;;;;;;;;;2.00;0.67;;;;;20.97;48.52;101394.03;5059523;28;46992;-45
2021/09/29 00:15:49;;;;;;;;;1.67;0.33;;;;;20.96;48.43;101390.50;5059722;28;45252;-45
2021/09/29 00:18:14;;;;;;;;;0.00;0.00;;;;;20.96;48.37;101390.50;5059724;28;45402;-47
2021/09/29 00:20:39;;;;;;;;;2.00;1.00;;;;;20.98;48.36;101398.53;5060074;28;45412;-45
2021/09/29 00:23:05;;;;;;;;;0.00;0.00;;;;;20.96;48.35;101390.50;5059694;28;47210;-45
2021/09/29 00:25:30;;;;;;;;;0.00;0.00;;;;;20.96;48.50;101392.28;5059623;28;45409;-49
2021/09/29 00:27:55;;;;;;;;;0.00;0.00;;;;;20.96;48.34;101394.97;5059790;28;45237;-46
2021/09/29 00:30:21;;;;;;;;;2.00;0.00;;;;;20.96;48.25;101394.97;5059909;28;45473;-44
2021/09/29 00:32:47;;;;;;;;;2.00;1.00;;;;;20.96;48.63;101395.84;5059067;28;46100;-46
2021/09/29 00:35:14;;;;;;;;;0.33;0.33;;;;;20.97;48.21;101396.72;5059541;28;45436;-44
2021/09/29 00:37:40;;;;;;;;;2.00;1.00;;;;;20.96;48.46;101401.19;5059625;28;45314;-51
2021/09/29 00:40:08;;;;;;;;;0.00;0.00;;;;;20.97;48.28;101386.03;5059725;28;45495;-46
2021/09/29 00:42:34;;;;;;;;;1.33;0.00;;;;;20.96;48.45;101377.13;5058895;28;46187;-48
2021/09/29 00:44:59;;;;;;;;;0.67;0.67;;;;;20.96;48.22;101382.50;5059133;28;45275;-45
2021/09/29 00:47:27;;;;;;;;;2.00;1.00;;;;;20.97;48.25;101375.31;5059526;28;45206;-47
2021/09/29 00:49:53;;;;;;;;;2.00;0.00;;;;;20.96;48.28;101368.25;5059522;28;45453;-44
2021/09/29 00:52:18;;;;;;;;;0.67;0.67;;;;;20.96;48.35;101370.91;5059091;28;46090;-47
2021/09/29 00:54:43;;;;;;;;;1.00;0.00;;;;;20.96;48.52;101371.78;5059060;28;45386;-44
2021/09/29 00:57:09;;;;;;;;;1.00;1.00;;;;;20.96;48.48;101365.56;5059525;28;45617;-46
2021/09/29 00:59:36;;;;;;;;;0.00;0.00;;;;;20.94;48.47;101358.44;5059325;28;45238;-47
2021/09/29 01:02:02;;;;;;;;;0.00;0.00;;;;;20.95;48.54;101364.66;5058888;28;46184;-47
2021/09/29 01:04:28;;;;;;;;;0.67;0.67;;;;;20.94;48.42;101366.44;5059032;28;45314;-49
2021/09/29 01:07:09;;;;;;;;;0.67;0.67;;;;;20.97;48.44;101364.63;5059153;28;45366;-51
2021/09/29 01:09:43;;;;;;;;;0.00;0.00;;;;;20.96;48.45;101362.88;5059120;28;45306;-45
2021/09/29 01:12:23;;;;;;;;;1.67;1.67;;;;;20.95;48.44;101356.66;5058624;28;46393;-44
2021/09/29 01:14:56;;;;;;;;;1.00;1.00;;;;;20.94;48.45;101353.09;5059111;28;45299;-49
2021/09/29 01:17:22;;;;;;;;;1.00;1.00;;;;;20.95;48.35;101353.97;5057931;28;45377;-47
2021/09/29 01:20:12;;;;;;;;;2.00;0.67;;;;;20.96;48.41;101357.53;5058871;28;45315;-48
2021/09/29 01:22:41;;;;;;;;;1.00;1.00;;;;;20.94;48.48;101346.84;5058475;28;47245;-46
2021/09/29 01:25:29;;;;;;;;;0.00;0.00;;;;;20.94;48.36;101346.84;5058475;28;45299;-46
2021/09/29 01:27:57;;;;;;;;;1.00;1.00;;;;;20.94;48.41;101347.75;5054633;28;45314;-45
2021/09/29 01:30:23;;;;;;;;;0.33;0.33;;;;;20.95;48.49;101345.97;5058779;28;45349;-45
2021/09/29 01:32:49;;;;;;;;;1.33;1.00;;;;;20.94;48.50;101347.75;5058143;28;46123;-45
2021/09/29 01:35:15;;;;;;;;;0.00;0.00;;;;;20.94;48.38;101339.72;5058456;28;45336;-46
2021/09/29 01:37:41;;;;;;;;;0.00;0.00;;;;;20.95;48.43;101337.94;5058783;28;45275;-45
2021/09/29 01:40:10;;;;;;;;;1.00;1.00;;;;;20.94;48.63;101334.38;5058671;28;45220;-47
2021/09/29 01:42:35;;;;;;;;;1.00;1.00;;;;;20.94;48.47;101330.81;5058148;28;46102;-46
2021/09/29 01:45:01;;;;;;;;;0.00;0.00;;;;;20.94;48.42;101318.34;5058401;28;45234;-45
2021/09/29 01:47:26;;;;;;;;;0.00;0.00;;;;;20.94;48.41;101323.69;5058578;28;45239;-47
2021/09/29 01:49:54;;;;;;;;;1.00;0.00;;;;;20.94;48.77;101323.69;5058561;28;45237;-45
2021/09/29 01:52:22;;;;;;;;;0.00;0.00;;;;;20.93;48.56;101324.63;5058155;28;47050;-45
2021/09/29 01:54:49;;;;;;;;;0.33;0.00;;;;;20.94;48.46;101322.81;5058168;28;45472;-44
2021/09/29 01:57:15;;;;;;;;;2.00;1.00;;;;;20.93;48.56;101327.28;5058403;28;45257;-44
2021/09/29 01:59:42;;;;;;;;;1.00;1.00;;;;;20.96;48.58;101325.47;5058446;28;45214;-48
2021/09/29 02:02:08;;;;;;;;;0.00;0.00;;;;;20.94;48.66;101326.38;5058115;28;46889;-45
2021/09/29 02:04:33;;;;;;;;;2.00;0.33;;;;;20.94;48.70;101331.72;5057975;28;45326;-48
2021/09/29 02:06:59;;;;;;;;;3.00;0.00;;;;;20.94;48.70;101315.69;5058335;28;45317;-49
2021/09/29 02:09:27;;;;;;;;;2.00;0.33;;;;;20.95;48.67;101324.59;5058328;28;45460;-45
2021/09/29 02:11:54;;;;;;;;;0.00;0.00;;;;;20.95;48.87;101324.59;5057963;28;46224;-47
2021/09/29 02:14:21;;;;;;;;;1.33;0.67;;;;;20.94;48.59;101318.34;5058035;28;45475;-48
2021/09/29 02:16:49;;;;;;;;;2.00;0.00;;;;;20.94;48.63;101312.13;5058128;28;45283;-45
2021/09/29 02:19:15;;;;;;;;;3.67;0.33;;;;;20.93;48.65;101303.25;5057890;28;45340;-46
2021/09/29 02:21:41;;;;;;;;;0.00;0.00;;;;;20.94;48.53;101301.44;5057598;28;46819;-48
2021/09/29 02:24:07;;;;;;;;;1.00;1.00;;;;;20.94;48.67;101313.00;5057891;28;45349;-50
2021/09/29 02:26:33;;;;;;;;;0.00;0.00;;;;;20.94;48.42;101317.47;5057938;28;45228;-47
2021/09/29 02:28:58;;;;;;;;;0.00;0.00;;;;;20.94;48.59;101315.69;5057867;28;45229;-47
2021/09/29 02:31:24;;;;;;;;;1.33;1.00;;;;;20.94;48.70;101312.13;5057209;28;46274;-47
2021/09/29 02:33:49;;;;;;;;;0.00;0.00;;;;;20.94;48.80;101318.34;5057569;28;45311;-53
2021/09/29 02:36:15;;;;;;;;;0.00;0.00;;;;;20.94;48.74;101309.44;5057700;28;45363;-47
2021/09/29 02:38:42;;;;;;;;;1.00;1.00;;;;;20.92;48.56;101304.13;5057859;28;45513;-49
2021/09/29 02:41:10;;;;;;;;;1.33;0.00;;;;;20.93;48.92;101313.03;5057580;28;47254;-46
2021/09/29 02:43:36;;;;;;;;;0.00;0.00;;;;;20.93;48.71;101321.94;5057506;28;45263;-44
2021/09/29 02:46:02;;;;;;;;;0.00;0.00;;;;;20.93;48.74;101316.59;5057664;28;45256;-50
2021/09/29 02:48:28;;;;;;;;;0.67;0.67;;;;;20.93;48.75;101313.94;5057885;28;45378;-48
2021/09/29 02:50:53;;;;;;;;;0.00;0.00;;;;;20.93;48.79;101316.59;5057225;28;46800;-50
2021/09/29 02:53:19;;;;;;;;;0.00;0.00;;;;;20.94;48.59;101322.81;5057502;28;45272;-47
2021/09/29 02:55:44;;;;;;;;;0.00;0.00;;;;;20.94;48.62;101329.03;5057701;28;45420;-48
2021/09/29 02:58:10;;;;;;;;;0.00;0.00;;;;;20.94;48.65;101328.16;5057565;28;45169;-50
2021/09/29 03:00:35;;;;;;;;;1.00;1.00;;;;;20.94;48.67;101323.69;5057362;28;46202;-45
2021/09/29 03:03:01;;;;;;;;;0.00;0.00;;;;;20.94;48.81;101328.16;5057413;28;45285;-51
2021/09/29 03:05:26;;;;;;;;;1.33;0.00;;;;;20.94;48.83;101325.47;5057399;28;45291;-45
2021/09/29 03:07:52;;;;;;;;;1.00;1.00;;;;;20.94;48.93;101322.81;5057761;28;45463;-45
2021/09/29 03:10:17;;;;;;;;;0.33;0.33;;;;;20.94;48.84;101312.13;5057227;28;47002;-45
2021/09/29 03:12:42;;;;;;;;;1.00;0.00;;;;;20.93;48.74;101327.28;5057260;28;45290;-48
2021/09/29 03:15:08;;;;;;;;;1.00;1.00;;;;;20.94;48.90;101330.81;5057368;28;45480;-48
2021/09/29 03:17:33;;;;;;;;;0.67;0.67;;;;;20.94;48.85;101320.13;5057482;28;45236;-47
2021/09/29 03:19:59;;;;;;;;;0.00;0.00;;;;;20.94;48.96;101322.81;5057089;28;46032;-47
2021/09/29 03:22:25;;;;;;;;;1.00;1.00;;;;;20.93;48.78;101313.94;5057061;28;45317;-45
2021/09/29 03:24:50;;;;;;;;;0.00;0.00;;;;;20.94;48.94;101312.13;5057207;28;45316;-44
2021/09/29 03:27:16;;;;;;;;;1.00;0.00;;;;;20.94;49.00;101328.16;5057504;28;45300;-46
2021/09/29 03:29:41;;;;;;;;;0.67;0.67;;;;;20.92;48.96;101312.16;5056987;28;46973;-45
2021/09/29 03:32:07;;;;;;;;;1.00;1.00;;;;;20.93;48.86;101305.91;5056273;28;45331;-49
2021/09/29 03:34:32;;;;;;;;;0.67;0.67;;;;;20.93;49.08;101310.38;5057120;28;45277;-47
2021/09/29 03:36:58;;;;;;;;;0.00;0.00;;;;;20.93;48.97;101313.94;5057165;28;45220;-46
2021/09/29 03:39:23;;;;;;;;;2.00;0.33;;;;;20.93;48.98;101321.06;5057477;28;46106;-48
2021/09/29 03:41:49;;;;;;;;;0.00;0.00;;;;;20.93;49.02;101319.28;5060221;28;45265;-54
2021/09/29 03:44:14;;;;;;;;;0.00;0.00;;;;;20.93;49.11;101321.94;5060422;28;45308;-47
2021/09/29 03:46:40;;;;;;;;;0.00;0.00;;;;;20.92;49.08;101330.84;5060561;28;45292;-45
2021/09/29 03:49:05;;;;;;;;;0.00;0.00;;;;;20.92;49.17;101325.50;5060377;28;47220;-47
2021/09/29 03:51:31;;;;;;;;;0.00;0.00;;;;;20.93;49.14;101332.63;5060244;28;45356;-44
2021/09/29 03:53:56;;;;;;;;;1.00;0.00;;;;;20.93;49.17;101337.97;5059990;28;45452;-44
2021/09/29 03:56:22;;;;;;;;;0.67;0.00;;;;;20.93;49.17;101342.44;5060723;28;45399;-47
2021/09/29 03:58:47;;;;;;;;;0.00;0.00;;;;;20.93;49.23;101339.75;5059891;28;46061;-48
2021/09/29 04:01:13;;;;;;;;;0.00;0.00;;;;;20.93;49.13;101337.09;5060242;28;45329;-45
2021/09/29 04:03:38;;;;;;;;;0.00;0.00;;;;;20.93;49.20;101334.41;5060323;28;45402;-50
2021/09/29 04:06:03;;;;;;;;;0.00;0.00;;;;;20.93;49.20;101337.09;5060258;28;45513;-49
2021/09/29 04:08:29;;;;;;;;;2.00;0.00;;;;;20.93;49.33;101334.41;5059853;28;47006;-44
2021/09/29 04:10:56;;;;;;;;;0.00;0.00;;;;;20.93;49.32;101329.06;5059926;28;45441;-47
2021/09/29 04:13:22;;;;;;;;;0.67;0.67;;;;;20.92;49.35;101346.88;5059831;28;45310;-45
2021/09/29 04:15:47;;;;;;;;;0.00;0.00;;;;;20.92;49.32;101341.53;5060283;28;45453;-44
2021/09/29 04:18:12;;;;;;;;;0.33;0.33;;;;;20.91;49.33;101339.78;5059761;28;47077;-45
2021/09/29 04:20:39;;;;;;;;;0.00;0.00;;;;;20.92;49.41;101343.31;5059691;28;45703;-50
2021/09/29 04:23:06;;;;;;;;;0.00;0.00;;;;;20.92;49.48;101338.88;5059856;28;45283;-46
2021/09/29 04:25:31;;;;;;;;;0.00;0.00;;;;;20.92;49.34;101348.66;5059831;28;45382;-48
2021/09/29 04:27:56;;;;;;;;;1.33;0.00;;;;;20.93;49.46;101340.66;5059552;28;47255;-45
2021/09/29 04:30:22;;;;;;;;;0.67;0.00;;;;;20.92;49.52;101351.34;5059454;28;45246;-46
2021/09/29 04:32:48;;;;;;;;;0.00;0.00;;;;;20.92;49.44;101352.22;5059611;28;45500;-47
2021/09/29 04:35:13;;;;;;;;;0.00;0.00;;;;;20.92;49.42;101346.00;5059838;28;45456;-44
2021/09/29 04:37:38;;;;;;;;;1.33;0.33;;;;;20.93;49.35;101347.78;5059464;28;46000;-44
2021/09/29 04:40:06;;;;;;;;;0.00;0.00;;;;;20.92;49.68;101352.22;5059317;28;45267;-48
2021/09/29 04:42:32;;;;;;;;;0.00;0.00;;;;;20.92;49.68;101354.91;5059704;28;45453;-51
2021/09/29 04:44:57;;;;;;;;;0.00;0.00;;;;;20.92;49.63;101362.91;5059623;28;45346;-51
2021/09/29 04:47:23;;;;;;;;;1.67;1.00;;;;;20.92;49.56;101367.38;5059111;28;46101;-49
2021/09/29 04:49:48;;;;;;;;;0.33;0.00;;;;;20.92;49.56;101372.72;5059570;28;45342;-44
2021/09/29 04:52:13;;;;;;;;;0.00;0.00;;;;;20.91;49.65;101377.22;5059394;28;45447;-46
2021/09/29 04:54:41;;;;;;;;;0.00;0.00;;;;;20.91;49.68;101366.53;5059350;28;45484;-44
2021/09/29 04:57:08;;;;;;;;;0.33;0.00;;;;;20.91;49.56;101384.34;5059002;28;46245;-49
2021/09/29 04:59:34;;;;;;;;;1.00;1.00;;;;;20.91;49.64;101405.72;5059172;28;45400;-55
2021/09/29 05:01:59;;;;;;;;;0.00;0.00;;;;;20.91;49.76;101397.69;5059289;28;45356;-48
2021/09/29 05:04:25;;;;;;;;;0.00;0.00;;;;;20.91;49.64;101406.59;5059259;28;45278;-55
2021/09/29 05:06:53;;;;;;;;;0.67;0.00;;;;;20.91;49.71;101411.94;5058974;28;47227;-53
2021/09/29 05:09:18;;;;;;;;;2.00;0.00;;;;;20.92;49.69;101418.16;5058804;28;45210;-45
2021/09/29 05:11:48;;;;;;;;;0.00;0.00;;;;;20.92;49.77;101418.16;5058894;28;45291;-45
2021/09/29 05:14:13;;;;;;;;;0.00;0.00;;;;;20.92;49.80;101434.19;5059213;28;45442;-48
2021/09/29 05:16:40;;;;;;;;;1.33;0.00;;;;;20.92;49.82;101421.72;5058678;28;46577;-47
2021/09/29 05:19:05;;;;;;;;;0.33;0.00;;;;;20.91;50.03;101419.97;5058968;28;45337;-51
2021/09/29 05:21:33;;;;;;;;;0.00;0.00;;;;;20.91;49.87;101419.06;5058917;28;45484;-45
2021/09/29 05:23:58;;;;;;;;;0.33;0.33;;;;;20.92;49.83;101415.47;5059031;28;45235;-48
2021/09/29 05:26:24;;;;;;;;;0.00;0.00;;;;;20.92;50.10;101420.81;5058776;28;47109;-60
2021/09/29 05:28:50;;;;;;;;;0.33;0.00;;;;;20.91;49.81;101421.75;5058843;28;45457;-56
2021/09/29 05:31:17;;;;;;;;;0.00;0.00;;;;;20.92;49.92;101436.84;5058714;28;45262;-46
2021/09/29 05:33:42;;;;;;;;;0.33;0.33;;;;;20.91;50.01;101440.44;5058898;28;45553;-58
2021/09/29 05:36:08;;;;;;;;;0.00;0.00;;;;;20.91;49.88;101440.44;5058499;28;46152;-60
2021/09/29 05:38:33;;;;;;;;;0.00;0.00;;;;;20.92;49.92;101447.53;5058704;28;45364;-53
2021/09/29 05:40:58;;;;;;;;;1.00;0.00;;;;;20.92;49.88;101452.88;5058850;28;45309;-57
2021/09/29 05:43:24;;;;;;;;;3.00;0.00;;;;;20.91;50.11;101460.06;5058704;28;45417;-59
2021/09/29 05:45:51;;;;;;;;;0.00;0.00;;;;;20.91;50.19;101452.03;5058551;28;47043;-53
2021/09/29 05:48:17;;;;;;;;;2.00;0.00;;;;;20.91;50.19;101468.06;5058395;28;45363;-54
2021/09/29 05:50:42;;;;;;;;;0.67;0.00;;;;;20.91;50.30;101457.38;5058758;28;45584;-59
2021/09/29 05:53:08;;;;;;;;;3.67;0.67;;;;;20.93;50.51;101462.69;5057620;28;45529;-49
2021/09/29 05:55:33;;;;;;;;;0.67;0.00;;;;;20.93;50.46;101482.28;5057915;28;46193;-52
2021/09/29 05:57:58;;;;;;;;;2.00;0.00;;;;;20.93;50.55;101484.06;5058426;28;45211;-54
2021/09/29 06:00:24;;;;;;;;;2.67;0.00;;;;;20.93;50.44;101489.41;5052842;28;45572;-55
2021/09/29 06:02:49;;;;;;;;;0.33;0.33;;;;;20.93;50.53;101495.66;5057763;28;45298;-54
2021/09/29 06:05:17;;;;;;;;;1.00;0.00;;;;;20.93;50.70;101484.97;5057956;28;46072;-59
2021/09/29 06:07:43;;;;;;;;;0.33;0.00;;;;;20.93;50.58;101502.78;5057976;28;45273;-54
2021/09/29 06:10:09;;;;;;;;;1.33;0.00;;;;;20.93;50.69;101506.34;5057832;28;45339;-58
2021/09/29 06:12:34;;;;;;;;;0.00;0.00;;;;;20.92;50.63;101506.34;5058201;28;45379;-50
2021/09/29 06:15:00;;;;;;;;;1.67;0.00;;;;;20.93;50.62;101509.00;5057751;28;46323;-54
2021/09/29 06:17:38;;;;;;;;;0.00;0.00;;;;;20.93;50.65;101519.69;5057736;28;45345;-56
2021/09/29 06:20:06;;;;;;;;;1.67;0.00;;;;;20.93;50.63;101525.06;5056688;28;45449;-56
2021/09/29 06:22:31;;;;;;;;;1.33;0.00;;;;;20.93;50.69;101543.75;5058111;28;45301;-57
2021/09/29 06:24:56;;;;;;;;;0.00;0.00;;;;;20.92;50.69;101550.00;5057367;28;46143;-56
2021/09/29 06:27:22;;;;;;;;;0.67;0.00;;;;;20.93;50.73;101551.78;5056429;28;45381;-60
2021/09/29 06:29:47;;;;;;;;;2.00;0.00;;;;;20.92;50.55;101555.34;5057804;28;45188;-53
2021/09/29 06:32:13;;;;;;;;;0.00;0.00;;;;;20.93;50.82;101572.25;5057601;28;45389;-54
2021/09/29 06:34:38;;;;;;;;;2.00;0.00;;;;;20.92;50.63;101571.38;5057469;28;46092;-59
2021/09/29 06:37:04;;;;;;;;;1.00;0.00;;;;;20.93;51.25;101581.16;5057489;28;45432;-61
2021/09/29 06:39:29;;;;;;;;;1.00;1.00;;;;;20.94;51.88;101582.91;5057512;28;45303;-59
2021/09/29 06:41:55;;;;;;;;;1.00;1.00;;;;;20.96;51.65;101582.03;5057603;28;45400;-52
2021/09/29 06:44:20;;;;;;;;;1.00;0.00;;;;;20.97;51.09;101595.38;5057307;28;45406;-55
2021/09/29 06:46:45;;;;;;;;;0.00;0.00;;;;;20.97;50.94;101594.47;5057723;28;45433;-55
2021/09/29 06:49:11;;;;;;;;;0.00;0.00;;;;;20.97;50.79;101603.38;5057826;28;45243;-63
2021/09/29 06:51:36;;;;;;;;;0.00;0.00;;;;;20.96;50.82;101596.28;5057836;28;45356;-58
2021/09/29 06:54:02;;;;;;;;;0.00;0.00;;;;;20.97;50.98;101599.81;5057352;28;47179;-55
2021/09/29 06:56:27;;;;;;;;;4.33;0.00;;;;;20.96;51.15;101601.63;5057363;28;45472;-62
2021/09/29 06:58:53;;;;;;;;;0.00;0.00;;;;;20.95;50.91;101613.22;5057526;28;45227;-58
2021/09/29 07:01:19;;;;;;;;;0.00;0.00;;;;;20.97;51.00;101615.84;5057573;28;45580;-54
2021/09/29 07:03:45;;;;;;;;;3.00;0.00;;;;;20.96;51.03;101624.78;5057269;28;46945;-49
2021/09/29 07:06:11;;;;;;;;;0.00;0.00;;;;;20.95;50.85;101626.56;5057340;28;45258;-52
2021/09/29 07:08:37;;;;;;;;;0.00;0.00;;;;;20.96;50.91;101624.78;5057450;28;45234;-59
2021/09/29 07:11:03;;;;;;;;;0.67;0.00;;;;;20.95;50.97;101629.25;5057401;28;45446;-57
2021/09/29 07:13:29;;;;;;;;;0.00;0.00;;;;;20.96;50.99;101624.78;5057165;28;47143;-56
2021/09/29 07:15:54;;;;;;;;;0.00;0.00;;;;;20.93;50.91;101631.94;5060242;28;45333;-61
2021/09/29 07:18:20;;;;;;;;;0.00;0.00;;;;;20.94;50.97;101628.34;5061086;28;45475;-51
2021/09/29 07:20:45;;;;;;;;;0.00;0.00;;;;;20.93;51.04;101637.28;5060963;28;45304;-48
2021/09/29 07:23:11;;;;;;;;;0.67;0.00;;;;;20.94;50.93;101638.16;5060479;28;46303;-54
2021/09/29 07:25:38;;;;;;;;;0.00;0.00;;;;;20.94;50.91;101643.50;5060587;28;45334;-53
2021/09/29 07:28:04;;;;;;;;;0.00;0.00;;;;;20.94;51.01;101651.50;5060617;28;45194;-59
2021/09/29 07:30:31;;;;;;;;;0.00;0.00;;;;;20.94;51.05;101638.16;5060256;28;45235;-54
2021/09/29 07:32:58;;;;;;;;;0.00;0.00;;;;;20.93;51.05;101647.97;5059975;28;46416;-52
2021/09/29 07:35:24;;;;;;;;;1.00;0.00;;;;;20.93;50.98;101647.97;5060462;28;45319;-56
2021/09/29 07:37:50;;;;;;;;;1.33;0.00;;;;;20.94;51.07;101657.75;5059186;28;45382;-46
2021/09/29 07:40:16;;;;;;;;;1.00;0.00;;;;;20.93;51.04;101661.34;5060672;28;45399;-47
2021/09/29 07:42:42;;;;;;;;;0.00;0.00;;;;;20.93;51.04;101673.81;5059934;28;46991;-52
2021/09/29 07:45:08;;;;;;;;;0.00;0.00;;;;;20.93;50.94;101668.47;5060179;28;45341;-64
2021/09/29 07:47:34;;;;;;;;;2.00;0.00;;;;;20.94;50.98;101678.25;5060226;28;45160;-54
2021/09/29 07:50:01;;;;;;;;;1.00;0.00;;;;;20.94;51.06;101683.59;5060778;28;45184;-53
2021/09/29 07:52:26;;;;;;;;;0.67;0.00;;;;;20.94;51.00;101686.25;5059975;28;46166;-57
2021/09/29 07:54:52;;;;;;;;;0.33;0.33;;;;;20.94;50.85;101696.94;5060072;28;45548;-53
2021/09/29 07:57:19;;;;;;;;;0.00;0.00;;;;;20.93;50.97;101689.84;5060071;28;45404;-58
2021/09/29 07:59:44;;;;;;;;;0.00;0.00;;;;;20.94;51.01;101702.28;5060387;28;45480;-52
2021/09/29 08:02:09;;;;;;;;;0.00;0.00;;;;;20.92;51.05;101699.66;5059673;28;46140;-62
2021/09/29 08:04:35;;;;;;;;;0.33;0.00;;;;;20.93;51.09;101700.53;5060016;28;45334;-51
2021/09/29 08:07:00;;;;;;;;;0.00;0.00;;;;;20.93;50.93;101711.22;5059874;28;45473;-57
2021/09/29 08:09:27;;;;;;;;;0.00;0.00;;;;;20.93;50.93;101709.44;5060232;28;45302;-58
2021/09/29 08:11:53;;;;;;;;;0.00;0.00;;;;;20.92;50.99;101712.13;5059883;28;46185;-49
2021/09/29 08:14:18;;;;;;;;;0.00;0.00;;;;;20.93;51.05;101716.56;5059561;28;45275;-52
2021/09/29 08:16:46;;;;;;;;;0.00;0.00;;;;;20.92;51.08;101710.34;5060111;28;45616;-50
2021/09/29 08:19:11;;;;;;;;;0.00;0.00;;;;;20.91;50.94;101719.28;5060060;28;45214;-45
2021/09/29 08:21:37;;;;;;;;;0.00;0.00;;;;;20.93;51.02;101722.81;5059641;28;46407;-53
2021/09/29 08:24:10;;;;;;;;;0.00;0.00;;;;;20.92;51.00;101734.38;5059850;28;45253;-55
2021/09/29 08:34:51;;;;;;;;;0.00;0.00;;;;;20.91;51.18;101746.00;5057375;28;45401;-56
2021/09/29 08:40:02;;;;;;;;;0.00;0.00;;;;;20.91;51.07;101753.13;5057291;28;45490;-54
2021/09/29 08:43:06;;;;;;;;;0.00;0.00;;;;;20.90;51.15;101760.25;5057267;28;47219;-49
2021/09/29 08:48:13;;;;;;;;;0.00;0.00;;;;;20.90;51.24;101770.03;5057269;28;45425;-46
2021/09/29 08:53:32;;;;;;;;;0.00;0.00;;;;;20.90;51.07;101775.38;5056805;28;46095;-53
2021/09/29 09:17:38;;;;;;;;;0.00;0.00;;;;;20.88;51.03;101804.81;5058760;28;45460;-52
2021/09/29 09:20:22;;;;;;;;;0.00;0.00;;;;;20.88;51.16;101803.91;5058744;28;45170;-51
2021/09/29 09:22:52;;;;;;;;;0.00;0.00;;;;;20.89;51.25;101805.69;5059083;28;45338;-48
2021/09/29 09:25:42;;;;;;;;;0.00;0.00;;;;;20.88;51.36;101809.25;5058666;28;46161;-50
2021/09/29 09:28:12;;;;;;;;;0.00;0.00;;;;;20.88;51.25;101818.16;5058520;28;45326;-57
2021/09/29 09:30:38;;;;;;;;;0.00;0.00;;;;;20.89;51.49;101821.72;5058508;28;45283;-46
2021/09/29 09:33:04;;;;;;;;;0.00;0.00;;;;;20.89;51.38;101819.06;5058379;28;45324;-51
2021/09/29 09:35:47;;;;;;;;;0.00;0.00;;;;;20.89;51.43;101816.38;5058429;28;46994;-55
2021/09/29 09:38:25;;;;;;;;;0.00;0.00;;;;;20.89;51.49;101825.31;5057575;28;45656;-52
2021/09/29 09:40:59;;;;;;;;;0.00;0.00;;;;;20.89;51.62;101827.06;5058715;28;45353;-53
2021/09/29 09:43:28;;;;;;;;;0.33;0.00;;;;;20.90;51.78;101824.38;5058604;28;45437;-53
2021/09/29 09:45:54;;;;;;;;;0.00;0.00;;;;;20.90;51.77;101823.50;5058284;28;46290;-48
2021/09/29 09:48:26;;;;;;;;;0.00;0.00;;;;;20.91;51.79;101828.84;5058460;28;45453;-50
2021/09/29 09:51:03;;;;;;;;;0.00;0.00;;;;;20.92;51.76;101838.63;5058340;28;45338;-53
2021/09/29 09:53:29;;;;;;;;;0.00;0.00;;;;;20.91;51.69;101828.84;5058398;28;45173;-61
2021/09/29 09:55:55;;;;;;;;;1.00;0.00;;;;;20.91;51.79;101844.88;5057942;28;46434;-50
2021/09/29 09:58:21;;;;;;;;;2.00;0.00;;;;;20.92;51.88;101857.31;5058149;28;45211;-51
2021/09/29 10:00:46;;;;;;;;;0.00;0.00;;;;;20.92;51.75;101845.75;5058393;28;45279;-52
2021/09/29 10:03:13;;;;;;;;;1.00;0.00;;;;;20.92;52.01;101846.63;5058506;28;45428;-52
2021/09/29 10:05:42;;;;;;;;;1.00;0.00;;;;;20.91;51.91;101844.88;5057777;28;46145;-52
2021/09/29 10:08:10;;;;;;;;;0.00;0.00;;;;;20.93;51.89;101847.53;5057993;28;45426;-56
2021/09/29 10:27:56;;;;;;;;;1.00;0.00;;;;;20.93;52.17;101863.56;5055542;28;45721;-46
2021/09/29 10:30:29;;;;;;;;;0.00;0.00;;;;;20.94;52.11;101868.91;5055540;28;45364;-46
2021/09/29 10:32:58;;;;;;;;;0.00;0.00;;;;;20.93;51.94;101877.81;5055161;28;45568;-58
2021/09/29 10:41:06;;;;;;;;;1.00;0.00;;;;;20.94;51.94;101916.09;5055319;28;45555;-51
2021/09/29 10:48:45;;;;;;;;;0.33;0.00;;;;;20.93;52.13;101925.94;5057945;28;45955;-49
2021/09/29 10:51:32;;;;;;;;;0.00;0.00;;;;;20.94;51.90;101933.03;5061296;28;45306;-50
2021/09/29 11:08:33;;;;;;;;;0.00;0.00;;;;;20.94;52.02;101937.50;5061478;28;45460;-58
2021/09/29 11:30:24;;;;;;;;;0.00;0.00;;;;;20.94;52.15;101965.13;5060742;28;45275;-56
2021/09/29 11:35:28;;;;;;;;;0.00;0.00;;;;;20.96;52.08;101961.56;5060455;28;45280;-46
2021/09/29 12:11:23;;;;;;;;;0.00;0.00;;;;;20.96;51.72;102025.72;5060097;28;45373;-52
2021/09/29 12:13:56;;;;;;;;;0.00;0.00;;;;;20.96;51.77;102015.91;5059921;28;45469;-49
2021/09/29 12:16:32;;;;;;;;;0.00;0.00;;;;;20.97;51.85;102022.13;5059511;28;45582;-46
2021/09/29 12:19:09;;;;;;;;;0.00;0.00;;;;;20.97;51.67;102016.78;5059614;28;45455;-45
2021/09/29 12:22:00;;;;;;;;;0.00;0.00;;;;;20.98;51.75;102015.94;5059717;28;45229;-45
2021/09/29 12:24:38;;;;;;;;;0.00;0.00;;;;;20.97;51.72;102006.09;5059614;28;45255;-47
2021/09/29 12:27:05;;;;;;;;;0.00;0.00;;;;;20.97;51.60;102011.44;5059423;28;46094;-48
2021/09/29 12:29:37;;;;;;;;;0.67;0.00;;;;;20.98;51.63;102018.59;5059610;28;45331;-45
2021/09/29 12:32:15;;;;;;;;;2.00;0.00;;;;;20.99;51.68;102015.00;5059417;28;45320;-45
2021/09/29 12:37:12;;;;;;;;;0.00;0.00;;;;;21.00;51.53;102024.81;5059229;28;45326;-47
2021/09/29 12:39:39;;;;;;;;;0.00;0.00;;;;;20.99;51.40;102025.72;5059441;28;45310;-47
2021/09/29 12:42:06;;;;;;;;;0.00;0.00;;;;;20.99;51.74;102015.91;5059597;28;45165;-46
2021/09/29 12:44:31;;;;;;;;;0.00;0.00;;;;;20.98;51.37;102024.84;5059817;28;45215;-47
2021/09/29 12:47:09;;;;;;;;;0.00;0.00;;;;;20.99;51.55;102023.94;5059299;28;47123;-56
2021/09/29 12:49:34;;;;;;;;;1.00;0.00;;;;;20.99;51.64;102029.28;5059337;28;45274;-51
2021/09/29 12:52:10;;;;;;;;;0.00;0.00;;;;;21.00;51.51;102035.50;5059546;28;45357;-59
2021/09/29 12:54:38;;;;;;;;;1.00;0.00;;;;;20.99;51.29;102028.38;5059468;28;45424;-54
2021/09/29 12:57:04;;;;;;;;;0.00;0.00;;;;;20.99;51.46;102041.75;5058959;28;46404;-48
2021/09/29 12:59:29;;;;;;;;;0.00;0.00;;;;;20.99;51.46;102036.41;5059190;28;45350;-46
2021/09/29 13:01:55;;;;;;;;;0.00;0.00;;;;;20.98;51.21;102040.88;5059200;28;45375;-45
2021/09/29 13:04:22;;;;;;;;;0.00;0.00;;;;;20.97;51.27;102049.75;5059443;28;45207;-45
2021/09/29 13:06:47;;;;;;;;;0.00;0.00;;;;;20.98;51.37;102048.00;5058994;28;47117;-55
2021/09/29 13:09:13;;;;;;;;;0.00;0.00;;;;;20.97;51.19;102055.09;5059131;28;45358;-48
2021/09/29 13:11:38;;;;;;;;;0.00;0.00;;;;;20.96;51.27;102068.47;5058145;28;45702;-60
2021/09/29 13:14:04;;;;;;;;;0.00;0.00;;;;;20.97;51.25;102072.91;5058924;28;45414;-58
2021/09/29 13:16:30;;;;;;;;;0.00;0.00;;;;;20.95;51.16;102086.28;5058770;28;46031;-45
2021/09/29 13:18:59;;;;;;;;;0.00;0.00;;;;;20.95;51.16;102105.00;5058814;28;45312;-51
2021/09/29 13:23:58;;;;;;;;;0.00;0.00;;;;;20.95;51.08;102094.31;5059071;28;45204;-66
2021/09/29 13:37:21;;;;;;;;;0.00;0.00;;;;;20.93;51.00;102099.66;5058477;28;45822;-48
2021/09/29 13:39:47;;;;;;;;;1.00;0.00;;;;;20.93;50.92;102096.09;5058332;28;45324;-49
2021/09/29 13:42:12;;;;;;;;;0.00;0.00;;;;;20.93;51.00;102091.66;5058503;28;45287;-55
2021/09/29 13:44:38;;;;;;;;;0.00;0.00;;;;;20.93;50.93;102097.00;5058571;28;45302;-52
2021/09/29 13:47:03;;;;;;;;;0.00;0.00;;;;;20.94;50.54;102101.44;5058494;28;47020;-45
2021/09/29 13:49:30;;;;;;;;;0.00;0.00;;;;;20.94;50.88;102098.75;5058351;28;45417;-46
2021/09/29 13:51:57;;;;;;;;;2.00;0.00;;;;;20.94;50.88;102104.09;5058414;28;45261;-53
2021/09/29 13:54:24;;;;;;;;;0.00;0.00;;;;;20.95;50.80;102113.00;5058142;28;45419;-48
2021/09/29 13:57:00;;;;;;;;;0.33;0.33;;;;;20.94;50.92;102109.44;5058007;28;46146;-45